sensor_id;sensor_type;location;lat;lon;timestamp;pressure;altitude;pressure_sealevel;temperature;humidity
20656;BME280;10487;53.320;8.672;2023-01-13T00:00:00;99696.94;;;7.57;65.45
20656;BME280;10487;53.320;8.672;2023-01-13T00:03:02;99692.94;;;7.51;65.51
20656;BME280;10487;53.320;8.672;2023-01-13T00:06:05;99695.97;;;7.47;65.60
20656;BME280;10487;53.320;8.672;2023-01-13T00:09:07;99697.25;;;7.41;65.56
20656;BME280;10487;53.320;8.672;2023-01-13T00:12:08;99691.47;;;7.36;65.58
20656;BME280;10487;53.320;8.672;2023-01-13T00:15:10;99688.31;;;7.31;65.62
20656;BME280;10487;53.320;8.672;2023-01-13T00:18:12;99689.53;;;7.27;65.39
20656;BME280;10487;53.320;8.672;2023-01-13T00:21:19;99689.03;;;7.22;65.52
20656;BME280;10487;53.320;8.672;2023-01-13T00:24:21;99701.56;;;7.20;65.65
20656;BME280;10487;53.320;8.672;2023-01-13T00:27:23;99686.72;;;7.17;65.50
20656;BME280;10487;53.320;8.672;2023-01-13T00:30:25;99695.78;;;7.15;65.54
20656;BME280;10487;53.320;8.672;2023-01-13T00:33:27;99697.69;;;7.13;65.39
20656;BME280;10487;53.320;8.672;2023-01-13T00:36:29;99695.28;;;7.10;65.53
20656;BME280;10487;53.320;8.672;2023-01-13T00:39:31;99709.47;;;7.09;65.49
20656;BME280;10487;53.320;8.672;2023-01-13T00:42:32;99697.19;;;7.08;65.54
20656;BME280;10487;53.320;8.672;2023-01-13T00:45:53;99700.81;;;7.07;65.38
20656;BME280;10487;53.320;8.672;2023-01-13T00:48:54;99698.16;;;7.07;65.62
20656;BME280;10487;53.320;8.672;2023-01-13T00:51:56;99690.06;;;7.08;65.60
20656;BME280;10487;53.320;8.672;2023-01-13T00:54:58;99698.03;;;7.08;65.33
20656;BME280;10487;53.320;8.672;2023-01-13T00:57:59;99705.16;;;7.08;65.56
20656;BME280;10487;53.320;8.672;2023-01-13T01:01:06;99703.47;;;7.07;65.39
20656;BME280;10487;53.320;8.672;2023-01-13T01:04:08;99707.06;;;7.06;65.32
20656;BME280;10487;53.320;8.672;2023-01-13T01:07:11;99710.69;;;7.05;65.51
20656;BME280;10487;53.320;8.672;2023-01-13T01:10:13;99715.00;;;7.06;65.53
20656;BME280;10487;53.320;8.672;2023-01-13T01:13:14;99718.50;;;7.06;65.28
20656;BME280;10487;53.320;8.672;2023-01-13T01:16:19;99727.44;;;7.05;65.34
20656;BME280;10487;53.320;8.672;2023-01-13T01:19:21;99732.00;;;7.03;65.41
20656;BME280;10487;53.320;8.672;2023-01-13T01:22:23;99731.28;;;7.01;65.39
20656;BME280;10487;53.320;8.672;2023-01-13T01:25:25;99734.91;;;7.00;65.38
20656;BME280;10487;53.320;8.672;2023-01-13T01:28:27;99728.13;;;6.96;65.43
20656;BME280;10487;53.320;8.672;2023-01-13T01:31:31;99735.47;;;6.93;65.32
20656;BME280;10487;53.320;8.672;2023-01-13T01:34:33;99734.75;;;6.91;65.19
20656;BME280;10487;53.320;8.672;2023-01-13T01:37:34;99737.63;;;6.88;65.14
20656;BME280;10487;53.320;8.672;2023-01-13T01:40:36;99737.97;;;6.83;65.23
20656;BME280;10487;53.320;8.672;2023-01-13T01:47:02;99738.53;;;6.76;65.38
20656;BME280;10487;53.320;8.672;2023-01-13T01:50:04;99731.53;;;6.75;65.57
20656;BME280;10487;53.320;8.672;2023-01-13T01:53:13;99752.84;;;6.73;65.24
20656;BME280;10487;53.320;8.672;2023-01-13T01:56:17;99743.06;;;6.74;65.41
20656;BME280;10487;53.320;8.672;2023-01-13T01:59:20;99730.78;;;6.73;65.42
20656;BME280;10487;53.320;8.672;2023-01-13T02:02:22;99739.69;;;6.72;65.48
20656;BME280;10487;53.320;8.672;2023-01-13T02:05:24;99739.69;;;6.72;65.45
20656;BME280;10487;53.320;8.672;2023-01-13T02:08:26;99740.53;;;6.72;65.45
20656;BME280;10487;53.320;8.672;2023-01-13T02:11:32;99727.41;;;6.71;65.42
20656;BME280;10487;53.320;8.672;2023-01-13T02:14:54;99731.00;;;6.69;65.35
20656;BME280;10487;53.320;8.672;2023-01-13T02:18:14;99729.41;;;6.67;65.32
20656;BME280;10487;53.320;8.672;2023-01-13T02:21:34;99735.03;;;6.62;65.24
20656;BME280;10487;53.320;8.672;2023-01-13T02:31:14;99753.00;;;6.46;65.36
20656;BME280;10487;53.320;8.672;2023-01-13T02:35:05;99744.88;;;6.37;65.20
20656;BME280;10487;53.320;8.672;2023-01-13T02:38:10;99752.22;;;6.33;65.12
20656;BME280;10487;53.320;8.672;2023-01-13T02:45:12;99755.50;;;6.24;65.39
20656;BME280;10487;53.320;8.672;2023-01-13T02:48:16;99753.91;;;6.22;65.37
20656;BME280;10487;53.320;8.672;2023-01-13T02:51:23;99763.78;;;6.20;65.17
20656;BME280;10487;53.320;8.672;2023-01-13T02:54:28;99768.34;;;6.18;65.14
20656;BME280;10487;53.320;8.672;2023-01-13T02:57:31;99770.34;;;6.14;65.23
20656;BME280;10487;53.320;8.672;2023-01-13T03:00:36;99767.16;;;6.09;65.21
20656;BME280;10487;53.320;8.672;2023-01-13T03:03:38;99753.31;;;6.05;65.18
20656;BME280;10487;53.320;8.672;2023-01-13T03:10:09;99751.00;;;6.01;65.19
20656;BME280;10487;53.320;8.672;2023-01-13T03:19:46;99759.56;;;5.92;65.18
20656;BME280;10487;53.320;8.672;2023-01-13T03:23:18;99757.25;;;5.87;65.19
20656;BME280;10487;53.320;8.672;2023-01-13T03:30:14;99740.81;;;5.82;65.14
20656;BME280;10487;53.320;8.672;2023-01-13T03:33:26;99736.50;;;5.81;65.21
20656;BME280;10487;53.320;8.672;2023-01-13T03:36:30;99730.38;;;5.81;65.23
20656;BME280;10487;53.320;8.672;2023-01-13T03:39:35;99727.81;;;5.79;64.97
20656;BME280;10487;53.320;8.672;2023-01-13T03:42:40;99724.41;;;5.77;65.18
20656;BME280;10487;53.320;8.672;2023-01-13T03:46:07;99726.13;;;5.78;65.20
20656;BME280;10487;53.320;8.672;2023-01-13T03:49:15;99719.25;;;5.76;65.11
20656;BME280;10487;53.320;8.672;2023-01-13T03:52:25;99718.59;;;5.72;65.01
20656;BME280;10487;53.320;8.672;2023-01-13T03:55:33;99721.44;;;5.69;65.02
20656;BME280;10487;53.320;8.672;2023-01-13T03:58:39;99723.38;;;5.67;65.07
20656;BME280;10487;53.320;8.672;2023-01-13T04:05:07;99732.59;;;5.62;64.97
20656;BME280;10487;53.320;8.672;2023-01-13T04:08:23;99715.00;;;5.61;65.30
20656;BME280;10487;53.320;8.672;2023-01-13T04:11:34;99714.28;;;5.59;65.08
20656;BME280;10487;53.320;8.672;2023-01-13T04:14:39;99711.72;;;5.57;65.06
20656;BME280;10487;53.320;8.672;2023-01-13T04:17:41;99717.88;;;5.58;65.07
20656;BME280;10487;53.320;8.672;2023-01-13T04:20:45;99708.25;;;5.57;65.06
20656;BME280;10487;53.320;8.672;2023-01-13T04:23:47;99703.91;;;5.56;64.95
20656;BME280;10487;53.320;8.672;2023-01-13T04:26:51;99695.97;;;5.56;65.02
20656;BME280;10487;53.320;8.672;2023-01-13T04:29:53;99696.16;;;5.53;64.86
20656;BME280;10487;53.320;8.672;2023-01-13T04:32:54;99697.00;;;5.53;65.07
20656;BME280;10487;53.320;8.672;2023-01-13T04:35:56;99705.06;;;5.52;64.83
20656;BME280;10487;53.320;8.672;2023-01-13T04:38:58;99695.44;;;5.51;65.04
20656;BME280;10487;53.320;8.672;2023-01-13T04:41:59;99700.84;;;5.49;64.88
20656;BME280;10487;53.320;8.672;2023-01-13T04:45:03;99689.41;;;5.49;65.02
20656;BME280;10487;53.320;8.672;2023-01-13T04:48:04;99692.06;;;5.49;64.86
20656;BME280;10487;53.320;8.672;2023-01-13T04:51:06;99688.66;;;5.47;65.06
20656;BME280;10487;53.320;8.672;2023-01-13T04:54:09;99702.63;;;5.49;65.11
20656;BME280;10487;53.320;8.672;2023-01-13T04:57:11;99698.28;;;5.48;64.84
20656;BME280;10487;53.320;8.672;2023-01-13T05:00:15;99703.56;;;5.48;64.87
20656;BME280;10487;53.320;8.672;2023-01-13T05:03:17;99694.78;;;5.47;64.99
20656;BME280;10487;53.320;8.672;2023-01-13T05:06:19;99697.34;;;5.49;65.01
20656;BME280;10487;53.320;8.672;2023-01-13T05:09:20;99693.72;;;5.50;64.95
20656;BME280;10487;53.320;8.672;2023-01-13T05:12:22;99703.38;;;5.51;64.84
20656;BME280;10487;53.320;8.672;2023-01-13T05:15:42;99702.44;;;5.52;64.93
20656;BME280;10487;53.320;8.672;2023-01-13T05:19:03;99695.31;;;5.52;64.90
20656;BME280;10487;53.320;8.672;2023-01-13T05:22:05;99704.09;;;5.53;64.83
20656;BME280;10487;53.320;8.672;2023-01-13T05:25:25;99693.53;;;5.53;64.66
20656;BME280;10487;53.320;8.672;2023-01-13T05:28:32;99693.53;;;5.53;64.82
20656;BME280;10487;53.320;8.672;2023-01-13T05:31:34;99688.88;;;5.56;64.86
20656;BME280;10487;53.320;8.672;2023-01-13T05:34:36;99696.69;;;5.58;64.72
20656;BME280;10487;53.320;8.672;2023-01-13T05:37:37;99693.97;;;5.59;64.82
20656;BME280;10487;53.320;8.672;2023-01-13T05:40:40;99689.69;;;5.82;65.36
20656;BME280;10487;53.320;8.672;2023-01-13T05:44:00;99690.72;;;5.92;64.81
20656;BME280;10487;53.320;8.672;2023-01-13T05:47:02;99701.09;;;6.07;64.60
20656;BME280;10487;53.320;8.672;2023-01-13T05:50:04;99673.88;;;6.05;64.57
20656;BME280;10487;53.320;8.672;2023-01-13T05:53:05;99679.25;;;6.04;64.42
20656;BME280;10487;53.320;8.672;2023-01-13T05:56:08;99685.75;;;6.00;64.54
20656;BME280;10487;53.320;8.672;2023-01-13T05:59:10;99674.41;;;5.98;64.54
20656;BME280;10487;53.320;8.672;2023-01-13T06:02:11;99680.78;;;5.95;64.52
20656;BME280;10487;53.320;8.672;2023-01-13T06:05:13;99677.28;;;5.95;64.67
20656;BME280;10487;53.320;8.672;2023-01-13T06:08:15;99677.41;;;5.93;64.48
20656;BME280;10487;53.320;8.672;2023-01-13T06:11:19;99662.47;;;5.92;64.68
20656;BME280;10487;53.320;8.672;2023-01-13T06:14:20;99677.50;;;5.92;64.42
20656;BME280;10487;53.320;8.672;2023-01-13T06:17:22;99674.09;;;5.90;64.30
20656;BME280;10487;53.320;8.672;2023-01-13T06:20:24;99666.16;;;5.90;64.40
20656;BME280;10487;53.320;8.672;2023-01-13T06:23:25;99657.28;;;5.91;64.49
20656;BME280;10487;53.320;8.672;2023-01-13T06:26:29;99666.16;;;5.90;64.33
20656;BME280;10487;53.320;8.672;2023-01-13T06:29:32;99666.28;;;5.88;64.36
20656;BME280;10487;53.320;8.672;2023-01-13T06:32:40;99664.72;;;5.86;64.36
20656;BME280;10487;53.320;8.672;2023-01-13T06:35:47;99677.09;;;5.85;64.29
20656;BME280;10487;53.320;8.672;2023-01-13T06:38:55;99676.34;;;5.83;64.21
20656;BME280;10487;53.320;8.672;2023-01-13T06:41:58;99683.44;;;5.83;64.35
20656;BME280;10487;53.320;8.672;2023-01-13T06:45:19;99661.53;;;5.81;64.28
20656;BME280;10487;53.320;8.672;2023-01-13T06:48:24;99681.00;;;5.80;64.21
20656;BME280;10487;53.320;8.672;2023-01-13T06:51:28;99673.28;;;5.77;64.11
20656;BME280;10487;53.320;8.672;2023-01-13T06:54:29;99674.13;;;5.77;64.22
20656;BME280;10487;53.320;8.672;2023-01-13T06:57:31;99675.09;;;5.76;64.34
20656;BME280;10487;53.320;8.672;2023-01-13T07:00:33;99671.59;;;5.76;64.32
20656;BME280;10487;53.320;8.672;2023-01-13T07:03:39;99669.03;;;5.74;64.16
20656;BME280;10487;53.320;8.672;2023-01-13T07:06:41;99661.97;;;5.75;64.25
20656;BME280;10487;53.320;8.672;2023-01-13T07:09:42;99668.09;;;5.75;64.14
20656;BME280;10487;53.320;8.672;2023-01-13T07:12:44;99662.81;;;5.75;64.12
20656;BME280;10487;53.320;8.672;2023-01-13T07:16:06;99662.94;;;5.74;64.13
20656;BME280;10487;53.320;8.672;2023-01-13T07:19:08;99655.38;;;5.80;64.08
20656;BME280;10487;53.320;8.672;2023-01-13T07:22:12;99662.59;;;5.78;64.21
20656;BME280;10487;53.320;8.672;2023-01-13T07:25:14;99652.00;;;5.78;63.90
20656;BME280;10487;53.320;8.672;2023-01-13T07:28:16;99654.75;;;5.77;63.99
20656;BME280;10487;53.320;8.672;2023-01-13T07:31:19;99663.53;;;5.77;64.20
20656;BME280;10487;53.320;8.672;2023-01-13T07:34:21;99649.44;;;5.77;64.07
20656;BME280;10487;53.320;8.672;2023-01-13T07:37:23;99655.59;;;5.77;64.15
20656;BME280;10487;53.320;8.672;2023-01-13T07:40:24;99653.06;;;5.76;64.17
20656;BME280;10487;53.320;8.672;2023-01-13T07:43:26;99659.31;;;5.75;64.06
20656;BME280;10487;53.320;8.672;2023-01-13T07:46:33;99662.94;;;5.74;64.08
20656;BME280;10487;53.320;8.672;2023-01-13T07:49:35;99662.94;;;5.74;64.15
20656;BME280;10487;53.320;8.672;2023-01-13T07:52:37;99666.41;;;5.74;64.20
20656;BME280;10487;53.320;8.672;2023-01-13T07:55:42;99674.34;;;5.74;64.20
20656;BME280;10487;53.320;8.672;2023-01-13T07:58:44;99670.88;;;5.74;64.24
20656;BME280;10487;53.320;8.672;2023-01-13T08:01:53;99681.47;;;5.74;64.11
20656;BME280;10487;53.320;8.672;2023-01-13T08:04:55;99682.28;;;5.74;63.98
20656;BME280;10487;53.320;8.672;2023-01-13T08:07:56;99684.91;;;5.74;64.04
20656;BME280;10487;53.320;8.672;2023-01-13T08:10:59;99681.00;;;5.80;64.42
20656;BME280;10487;53.320;8.672;2023-01-13T08:14:00;99685.16;;;6.20;65.05
20656;BME280;10487;53.320;8.672;2023-01-13T08:17:02;99692.94;;;6.34;64.28
20656;BME280;10487;53.320;8.672;2023-01-13T08:20:04;99691.28;;;6.33;63.98
20656;BME280;10487;53.320;8.672;2023-01-13T08:23:06;99687.38;;;6.26;63.95
20656;BME280;10487;53.320;8.672;2023-01-13T08:26:10;99696.59;;;6.21;63.82
20656;BME280;10487;53.320;8.672;2023-01-13T08:29:12;99690.88;;;6.14;63.98
20656;BME280;10487;53.320;8.672;2023-01-13T08:32:15;99694.84;;;6.09;63.93
20656;BME280;10487;53.320;8.672;2023-01-13T08:35:17;99707.31;;;6.06;63.92
20656;BME280;10487;53.320;8.672;2023-01-13T08:38:20;99696.97;;;6.03;64.02
20656;BME280;10487;53.320;8.672;2023-01-13T08:41:21;99696.34;;;6.00;64.09
20656;BME280;10487;53.320;8.672;2023-01-13T08:44:42;99701.84;;;5.97;64.03
20656;BME280;10487;53.320;8.672;2023-01-13T08:47:43;99702.09;;;5.94;64.03
20656;BME280;10487;53.320;8.672;2023-01-13T08:50:45;99694.22;;;5.92;63.71
20656;BME280;10487;53.320;8.672;2023-01-13T08:53:46;99692.63;;;5.90;64.02
20656;BME280;10487;53.320;8.672;2023-01-13T08:56:48;99691.78;;;5.89;64.05
20656;BME280;10487;53.320;8.672;2023-01-13T08:59:50;99695.19;;;5.91;64.03
20656;BME280;10487;53.320;8.672;2023-01-13T09:02:51;99689.78;;;5.93;63.97
20656;BME280;10487;53.320;8.672;2023-01-13T09:05:53;99698.56;;;5.93;63.81
20656;BME280;10487;53.320;8.672;2023-01-13T09:08:54;99684.50;;;5.93;63.91
20656;BME280;10487;53.320;8.672;2023-01-13T09:11:56;99687.13;;;5.93;63.76
20656;BME280;10487;53.320;8.672;2023-01-13T09:15:16;99687.13;;;5.93;63.83
20656;BME280;10487;53.320;8.672;2023-01-13T09:18:22;99693.28;;;5.93;64.06
20656;BME280;10487;53.320;8.672;2023-01-13T09:21:25;99694.13;;;5.94;63.65
20656;BME280;10487;53.320;8.672;2023-01-13T09:24:27;99694.13;;;5.94;63.86
20656;BME280;10487;53.320;8.672;2023-01-13T09:27:29;99710.84;;;5.94;63.71
20656;BME280;10487;53.320;8.672;2023-01-13T09:30:30;99709.03;;;5.95;63.80
20656;BME280;10487;53.320;8.672;2023-01-13T09:33:32;99718.91;;;5.93;63.57
20656;BME280;10487;53.320;8.672;2023-01-13T09:36:52;99722.75;;;5.89;63.62
20656;BME280;10487;53.320;8.672;2023-01-13T09:39:54;99731.94;;;5.83;63.71
20656;BME280;10487;53.320;8.672;2023-01-13T09:43:01;99734.91;;;5.79;63.57
20656;BME280;10487;53.320;8.672;2023-01-13T09:46:35;99723.03;;;5.72;63.78
20656;BME280;10487;53.320;8.672;2023-01-13T09:49:50;99732.34;;;5.65;63.83
20656;BME280;10487;53.320;8.672;2023-01-13T09:52:52;99728.25;;;5.61;63.83
20656;BME280;10487;53.320;8.672;2023-01-13T09:55:54;99743.28;;;5.60;64.05
20656;BME280;10487;53.320;8.672;2023-01-13T09:58:56;99747.16;;;5.55;64.03
20656;BME280;10487;53.320;8.672;2023-01-13T10:05:39;99726.53;;;5.47;64.02
20656;BME280;10487;53.320;8.672;2023-01-13T10:08:44;99736.28;;;5.47;64.02
20656;BME280;10487;53.320;8.672;2023-01-13T10:11:48;99738.09;;;5.46;64.01
20656;BME280;10487;53.320;8.672;2023-01-13T10:15:19;99737.22;;;5.46;64.19
20656;BME280;10487;53.320;8.672;2023-01-13T10:18:32;99734.69;;;5.44;64.13
20656;BME280;10487;53.320;8.672;2023-01-13T10:27:55;99745.81;;;5.49;64.13
20656;BME280;10487;53.320;8.672;2023-01-13T10:31:09;99741.88;;;5.55;64.16
20656;BME280;10487;53.320;8.672;2023-01-13T10:34:11;99728.44;;;5.58;64.05
20656;BME280;10487;53.320;8.672;2023-01-13T10:37:20;99749.41;;;5.61;63.96
20656;BME280;10487;53.320;8.672;2023-01-13T10:40:22;99742.13;;;5.64;64.13
20656;BME280;10487;53.320;8.672;2023-01-13T10:43:24;99738.31;;;5.68;64.14
20656;BME280;10487;53.320;8.672;2023-01-13T10:46:26;99739.88;;;5.71;63.95
20656;BME280;10487;53.320;8.672;2023-01-13T10:49:32;99724.75;;;5.73;64.00
20656;BME280;10487;53.320;8.672;2023-01-13T10:52:39;99724.63;;;5.74;63.98
20656;BME280;10487;53.320;8.672;2023-01-13T10:55:58;99731.41;;;5.78;64.07
20656;BME280;10487;53.320;8.672;2023-01-13T10:59:24;99733.00;;;5.81;63.89
20656;BME280;10487;53.320;8.672;2023-01-13T11:02:33;99732.03;;;5.82;64.19
20656;BME280;10487;53.320;8.672;2023-01-13T11:05:36;99734.44;;;6.10;64.63
20656;BME280;10487;53.320;8.672;2023-01-13T11:08:46;99739.00;;;6.21;64.03
20656;BME280;10487;53.320;8.672;2023-01-13T11:11:49;99726.69;;;6.20;63.95
20656;BME280;10487;53.320;8.672;2023-01-13T11:14:56;99734.13;;;6.15;63.84
20656;BME280;10487;53.320;8.672;2023-01-13T11:18:06;99740.69;;;6.09;63.84
20656;BME280;10487;53.320;8.672;2023-01-13T11:21:37;99732.47;;;6.01;63.85
20656;BME280;10487;53.320;8.672;2023-01-13T11:28:43;99744.31;;;5.95;63.92
20656;BME280;10487;53.320;8.672;2023-01-13T11:31:35;99726.97;;;5.91;64.01
20656;BME280;10487;53.320;8.672;2023-01-13T11:34:44;99738.63;;;5.89;64.21
20656;BME280;10487;53.320;8.672;2023-01-13T11:37:56;99748.44;;;5.87;64.08
20656;BME280;10487;53.320;8.672;2023-01-13T11:44:40;99750.47;;;5.83;63.93
20656;BME280;10487;53.320;8.672;2023-01-13T11:47:47;99752.38;;;5.81;64.14
20656;BME280;10487;53.320;8.672;2023-01-13T11:57:37;99768.28;;;5.69;63.96
20656;BME280;10487;53.320;8.672;2023-01-13T12:01:07;99763.19;;;5.66;64.06
20656;BME280;10487;53.320;8.672;2023-01-13T12:04:25;99766.88;;;5.63;64.18
20656;BME280;10487;53.320;8.672;2023-01-13T12:21:32;99778.94;;;5.55;64.30
20656;BME280;10487;53.320;8.672;2023-01-13T12:25:04;99778.00;;;5.68;64.55
20656;BME280;10487;53.320;8.672;2023-01-13T12:28:18;99781.25;;;5.72;64.36
20656;BME280;10487;53.320;8.672;2023-01-13T12:31:21;99785.81;;;5.70;64.31
20656;BME280;10487;53.320;8.672;2023-01-13T12:38:10;99775.56;;;5.65;64.14
20656;BME280;10487;53.320;8.672;2023-01-13T12:41:58;99766.75;;;5.65;64.35
20656;BME280;10487;53.320;8.672;2023-01-13T12:45:25;99762.53;;;5.62;64.15
20656;BME280;10487;53.320;8.672;2023-01-13T12:52:18;99772.50;;;5.59;64.41
20656;BME280;10487;53.320;8.672;2023-01-13T12:55:27;99772.50;;;5.59;64.24
20656;BME280;10487;53.320;8.672;2023-01-13T12:58:30;99772.50;;;5.59;64.27
20656;BME280;10487;53.320;8.672;2023-01-13T13:01:36;99768.69;;;5.63;64.32
20656;BME280;10487;53.320;8.672;2023-01-13T13:08:17;99772.91;;;5.65;64.21
20656;BME280;10487;53.320;8.672;2023-01-13T13:11:34;99781.59;;;5.67;64.17
20656;BME280;10487;53.320;8.672;2023-01-13T13:21:07;99782.97;;;5.73;64.25
20656;BME280;10487;53.320;8.672;2023-01-13T13:24:10;99781.81;;;5.77;64.19
20656;BME280;10487;53.320;8.672;2023-01-13T13:30:38;99781.50;;;5.81;64.18
20656;BME280;10487;53.320;8.672;2023-01-13T13:37:00;99786.69;;;5.83;64.17
20656;BME280;10487;53.320;8.672;2023-01-13T13:40:09;99796.22;;;5.85;64.17
20656;BME280;10487;53.320;8.672;2023-01-13T13:43:47;99790.72;;;5.88;64.18
20656;BME280;10487;53.320;8.672;2023-01-13T13:47:08;99794.22;;;5.89;64.11
20656;BME280;10487;53.320;8.672;2023-01-13T13:50:17;99795.81;;;5.91;64.20
20656;BME280;10487;53.320;8.672;2023-01-13T13:53:21;99788.69;;;5.92;64.06
20656;BME280;10487;53.320;8.672;2023-01-13T13:56:26;99798.34;;;5.93;64.18
20656;BME280;10487;53.320;8.672;2023-01-13T13:59:28;99812.31;;;5.95;64.07
20656;BME280;10487;53.320;8.672;2023-01-13T14:02:34;99809.56;;;5.96;64.14
20656;BME280;10487;53.320;8.672;2023-01-13T14:05:37;99812.09;;;5.98;64.30
20656;BME280;10487;53.320;8.672;2023-01-13T14:08:39;99808.50;;;5.99;64.10
20656;BME280;10487;53.320;8.672;2023-01-13T14:12:01;99806.59;;;6.01;64.13
20656;BME280;10487;53.320;8.672;2023-01-13T14:15:03;99815.16;;;6.04;64.21
20656;BME280;10487;53.320;8.672;2023-01-13T14:18:10;99809.53;;;6.09;64.10
20656;BME280;10487;53.320;8.672;2023-01-13T14:21:22;99812.72;;;6.14;64.06
20656;BME280;10487;53.320;8.672;2023-01-13T14:24:25;99808.06;;;6.18;63.94
20656;BME280;10487;53.320;8.672;2023-01-13T14:27:28;99834.56;;;6.18;63.64
20656;BME280;10487;53.320;8.672;2023-01-13T14:30:31;99840.72;;;6.18;63.83
20656;BME280;10487;53.320;8.672;2023-01-13T14:33:37;99871.63;;;6.18;63.81
20656;BME280;10487;53.320;8.672;2023-01-13T14:36:39;99857.44;;;6.19;63.88
20656;BME280;10487;53.320;8.672;2023-01-13T14:39:42;99864.53;;;6.18;63.90
20656;BME280;10487;53.320;8.672;2023-01-13T14:42:43;99853.09;;;6.18;63.90
20656;BME280;10487;53.320;8.672;2023-01-13T14:45:57;99872.38;;;6.20;63.96
20656;BME280;10487;53.320;8.672;2023-01-13T14:49:01;99874.16;;;6.19;63.88
20656;BME280;10487;53.320;8.672;2023-01-13T14:52:13;99878.84;;;6.16;63.81
20656;BME280;10487;53.320;8.672;2023-01-13T14:55:35;99892.41;;;6.11;63.91
20656;BME280;10487;53.320;8.672;2023-01-13T14:58:39;99905.00;;;6.07;63.84
20656;BME280;10487;53.320;8.672;2023-01-13T15:01:40;99906.91;;;6.05;63.87
20656;BME280;10487;53.320;8.672;2023-01-13T15:04:42;99895.66;;;6.02;63.74
20656;BME280;10487;53.320;8.672;2023-01-13T15:10:59;99924.38;;;5.95;64.00
20656;BME280;10487;53.320;8.672;2023-01-13T15:14:01;99894.59;;;5.92;64.00
20656;BME280;10487;53.320;8.672;2023-01-13T15:17:11;99910.72;;;5.89;63.98
20656;BME280;10487;53.320;8.672;2023-01-13T15:20:17;99916.22;;;5.86;63.80
20656;BME280;10487;53.320;8.672;2023-01-13T15:23:20;99933.22;;;5.82;63.92
20656;BME280;10487;53.320;8.672;2023-01-13T15:26:27;99930.00;;;6.03;64.80
20656;BME280;10487;53.320;8.672;2023-01-13T15:29:29;99930.34;;;6.37;64.67
20656;BME280;10487;53.320;8.672;2023-01-13T15:32:30;99934.38;;;6.42;64.09
20656;BME280;10487;53.320;8.672;2023-01-13T15:35:32;99908.00;;;6.41;63.92
20656;BME280;10487;53.320;8.672;2023-01-13T15:38:34;99922.50;;;6.35;63.92
20656;BME280;10487;53.320;8.672;2023-01-13T15:41:35;99949.41;;;6.29;63.98
20656;BME280;10487;53.320;8.672;2023-01-13T15:44:55;99941.97;;;6.22;63.91
20656;BME280;10487;53.320;8.672;2023-01-13T15:48:15;99943.47;;;6.13;63.98
20656;BME280;10487;53.320;8.672;2023-01-13T15:51:17;99955.44;;;6.06;64.00
20656;BME280;10487;53.320;8.672;2023-01-13T15:54:20;99967.81;;;6.05;64.23
20656;BME280;10487;53.320;8.672;2023-01-13T15:57:31;99985.41;;;6.06;64.05
20656;BME280;10487;53.320;8.672;2023-01-13T16:00:34;100005.97;;;6.03;64.14
20656;BME280;10487;53.320;8.672;2023-01-13T16:03:35;100000.00;;;5.99;64.11
20656;BME280;10487;53.320;8.672;2023-01-13T16:06:37;100014.53;;;5.94;64.15
20656;BME280;10487;53.320;8.672;2023-01-13T16:09:39;100020.09;;;5.89;63.98
20656;BME280;10487;53.320;8.672;2023-01-13T16:12:40;100021.13;;;5.87;64.05
20656;BME280;10487;53.320;8.672;2023-01-13T16:15:46;100010.53;;;5.87;64.15
20656;BME280;10487;53.320;8.672;2023-01-13T16:18:49;100020.41;;;5.85;64.19
20656;BME280;10487;53.320;8.672;2023-01-13T16:21:51;100024.94;;;5.83;63.99
20656;BME280;10487;53.320;8.672;2023-01-13T16:24:53;100030.53;;;5.78;64.11
20656;BME280;10487;53.320;8.672;2023-01-13T16:27:55;100046.91;;;5.71;63.94
20656;BME280;10487;53.320;8.672;2023-01-13T16:30:56;100069.44;;;5.64;64.16
20656;BME280;10487;53.320;8.672;2023-01-13T16:33:59;100087.41;;;5.59;64.06
20656;BME280;10487;53.320;8.672;2023-01-13T16:37:02;100067.59;;;5.52;64.04
20656;BME280;10487;53.320;8.672;2023-01-13T16:40:04;100049.31;;;5.47;63.97
20656;BME280;10487;53.320;8.672;2023-01-13T16:43:05;100062.00;;;5.42;63.95
20656;BME280;10487;53.320;8.672;2023-01-13T16:46:24;100070.22;;;5.37;64.12
20656;BME280;10487;53.320;8.672;2023-01-13T16:49:26;100087.25;;;5.33;63.96
20656;BME280;10487;53.320;8.672;2023-01-13T16:52:28;100089.31;;;5.28;63.95
20656;BME280;10487;53.320;8.672;2023-01-13T16:55:30;100077.25;;;5.24;64.00
20656;BME280;10487;53.320;8.672;2023-01-13T16:58:32;100081.97;;;5.19;64.14
20656;BME280;10487;53.320;8.672;2023-01-13T17:01:37;100096.13;;;5.18;64.02
20656;BME280;10487;53.320;8.672;2023-01-13T17:04:39;100116.59;;;5.15;64.05
20656;BME280;10487;53.320;8.672;2023-01-13T17:07:43;100115.94;;;5.11;64.14
20656;BME280;10487;53.320;8.672;2023-01-13T17:10:45;100120.53;;;5.08;64.07
20656;BME280;10487;53.320;8.672;2023-01-13T17:13:47;100126.78;;;5.07;64.13
20656;BME280;10487;53.320;8.672;2023-01-13T17:16:50;100123.28;;;5.06;64.20
20656;BME280;10487;53.320;8.672;2023-01-13T17:19:53;100129.50;;;5.05;64.28
20656;BME280;10487;53.320;8.672;2023-01-13T17:22:55;100141.88;;;5.05;64.13
20656;BME280;10487;53.320;8.672;2023-01-13T17:25:59;100123.47;;;5.03;64.09
20656;BME280;10487;53.320;8.672;2023-01-13T17:29:04;100157.09;;;5.01;64.14
20656;BME280;10487;53.320;8.672;2023-01-13T17:32:06;100157.09;;;5.01;64.09
20656;BME280;10487;53.320;8.672;2023-01-13T17:35:08;100161.41;;;5.02;64.24
20656;BME280;10487;53.320;8.672;2023-01-13T17:38:09;100169.34;;;5.02;64.06
20656;BME280;10487;53.320;8.672;2023-01-13T17:41:11;100164.06;;;5.02;64.24
20656;BME280;10487;53.320;8.672;2023-01-13T17:44:14;100168.41;;;5.03;64.11
20656;BME280;10487;53.320;8.672;2023-01-13T17:47:16;100171.06;;;5.03;64.07
20656;BME280;10487;53.320;8.672;2023-01-13T17:50:17;100179.69;;;5.07;64.05
20656;BME280;10487;53.320;8.672;2023-01-13T17:53:19;100178.81;;;5.06;64.13
20656;BME280;10487;53.320;8.672;2023-01-13T17:56:21;100177.84;;;5.07;64.14
20656;BME280;10487;53.320;8.672;2023-01-13T17:59:24;100185.91;;;5.06;64.19
20656;BME280;10487;53.320;8.672;2023-01-13T18:02:26;100184.00;;;5.08;64.07
20656;BME280;10487;53.320;8.672;2023-01-13T18:05:30;100191.94;;;5.08;64.04
20656;BME280;10487;53.320;8.672;2023-01-13T18:08:34;100206.94;;;5.07;64.07
20656;BME280;10487;53.320;8.672;2023-01-13T18:11:36;100217.44;;;5.09;64.09